Ana Sayfa
METAR-TAF:

METAR-TAF

Havaalanları :

Weipa, Avustralya

Enlem: 12-40-43S, Boylam: 141-55-31E, yükseklik: 19 m

Güncel hava durumu gözlemi

Rapor saat 08:00 UTC de 37 dakika önce yapıldı.
Rüzgar doğudan 7 kt
Sıcaklık 28°C
Nem 55%
Basınç 1012 hPa
Görüş mesafesi 10 km veya daha fazla
7500 ft yükseklikte parçalı bulutlu

METAR: YBWP 180800Z AUTO 09007KT 9999 // SCT075 28/18 Q1012

Saat: 18:37 (08:37 UTC)


TAF: eksik

4.000'den fazla havaalanı için hava durumu gözlemleri ve tahminleri (METAR ve TAF raporları).

Kullanılabilir istasyonlar harita üzerinde sarı ve kırmızı noktalarla gösterilir.

İstasyonun adını görmek için fareyi noktanın üzerinde gezdirin.

Sonrasında hava gözlem ve tahminlerini görmek için tıklayın.

Haritayı değiştirmek için: yaklaştırmak için siyah artı işaretli yeşil düğmeye ve uzaklaştırmak için de eksi işaretli düğmeye hızla tıklayın; bitişik haritalar için yeşil okları kullanın.


METAR-TAF: